sensor_id;sensor_type;location;lat;lon;timestamp;P1;durP1;ratioP1;P2;durP2;ratioP2
9420;SDS011;4749;51.398;5.466;2023-03-01T00:01:54;8.10;;;6.30;;
9420;SDS011;4749;51.398;5.466;2023-03-01T00:04:31;9.43;;;6.73;;
9420;SDS011;4749;51.398;5.466;2023-03-01T00:07:02;8.47;;;6.03;;
9420;SDS011;4749;51.398;5.466;2023-03-01T00:10:01;9.33;;;6.50;;
9420;SDS011;4749;51.398;5.466;2023-03-01T00:12:39;9.97;;;6.70;;
9420;SDS011;4749;51.398;5.466;2023-03-01T00:15:44;8.57;;;6.23;;
9420;SDS011;4749;51.398;5.466;2023-03-01T00:18:11;7.40;;;5.83;;
9420;SDS011;4749;51.398;5.466;2023-03-01T00:20:39;8.30;;;6.30;;
9420;SDS011;4749;51.398;5.466;2023-03-01T00:23:07;8.33;;;6.90;;
9420;SDS011;4749;51.398;5.466;2023-03-01T00:25:40;8.27;;;6.73;;
9420;SDS011;4749;51.398;5.466;2023-03-01T00:28:12;10.03;;;6.87;;
9420;SDS011;4749;51.398;5.466;2023-03-01T00:30:46;7.97;;;6.50;;
9420;SDS011;4749;51.398;5.466;2023-03-01T00:33:14;7.47;;;5.33;;
9420;SDS011;4749;51.398;5.466;2023-03-01T00:36:27;8.63;;;6.67;;
9420;SDS011;4749;51.398;5.466;2023-03-01T00:39:31;10.03;;;6.70;;
9420;SDS011;4749;51.398;5.466;2023-03-01T00:42:44;8.93;;;6.30;;
9420;SDS011;4749;51.398;5.466;2023-03-01T00:45:44;9.37;;;6.77;;
9420;SDS011;4749;51.398;5.466;2023-03-01T00:48:18;9.77;;;6.13;;
9420;SDS011;4749;51.398;5.466;2023-03-01T00:51:00;10.07;;;6.63;;
9420;SDS011;4749;51.398;5.466;2023-03-01T00:54:05;9.83;;;6.77;;
9420;SDS011;4749;51.398;5.466;2023-03-01T00:57:07;9.53;;;6.63;;
9420;SDS011;4749;51.398;5.466;2023-03-01T00:59:38;11.03;;;6.43;;
9420;SDS011;4749;51.398;5.466;2023-03-01T01:02:17;8.00;;;6.13;;
9420;SDS011;4749;51.398;5.466;2023-03-01T01:04:56;8.43;;;6.63;;
9420;SDS011;4749;51.398;5.466;2023-03-01T01:07:26;6.87;;;5.43;;
9420;SDS011;4749;51.398;5.466;2023-03-01T01:09:56;7.37;;;6.17;;
9420;SDS011;4749;51.398;5.466;2023-03-01T01:12:24;7.87;;;6.47;;
9420;SDS011;4749;51.398;5.466;2023-03-01T01:14:52;8.60;;;6.60;;
9420;SDS011;4749;51.398;5.466;2023-03-01T01:17:19;8.97;;;6.20;;
9420;SDS011;4749;51.398;5.466;2023-03-01T01:19:50;7.93;;;6.37;;
9420;SDS011;4749;51.398;5.466;2023-03-01T01:22:17;10.30;;;6.43;;
9420;SDS011;4749;51.398;5.466;2023-03-01T01:24:44;8.27;;;6.27;;
9420;SDS011;4749;51.398;5.466;2023-03-01T01:27:12;9.10;;;6.93;;
9420;SDS011;4749;51.398;5.466;2023-03-01T01:29:39;7.27;;;5.97;;
9420;SDS011;4749;51.398;5.466;2023-03-01T01:32:08;8.27;;;6.37;;
9420;SDS011;4749;51.398;5.466;2023-03-01T01:34:35;8.60;;;6.17;;
9420;SDS011;4749;51.398;5.466;2023-03-01T01:37:03;7.60;;;5.90;;
9420;SDS011;4749;51.398;5.466;2023-03-01T01:39:34;7.80;;;6.00;;
9420;SDS011;4749;51.398;5.466;2023-03-01T01:42:02;8.60;;;6.20;;
9420;SDS011;4749;51.398;5.466;2023-03-01T01:44:29;8.20;;;5.90;;
9420;SDS011;4749;51.398;5.466;2023-03-01T01:46:57;8.60;;;5.57;;
9420;SDS011;4749;51.398;5.466;2023-03-01T01:49:54;7.73;;;6.33;;
9420;SDS011;4749;51.398;5.466;2023-03-01T01:52:34;9.23;;;6.03;;
9420;SDS011;4749;51.398;5.466;2023-03-01T01:55:14;8.60;;;5.87;;
9420;SDS011;4749;51.398;5.466;2023-03-01T01:57:51;9.00;;;6.20;;
9420;SDS011;4749;51.398;5.466;2023-03-01T02:00:26;8.37;;;6.30;;
9420;SDS011;4749;51.398;5.466;2023-03-01T02:03:02;7.20;;;5.77;;
9420;SDS011;4749;51.398;5.466;2023-03-01T02:08:10;6.80;;;5.20;;
9420;SDS011;4749;51.398;5.466;2023-03-01T02:10:39;9.57;;;5.73;;
9420;SDS011;4749;51.398;5.466;2023-03-01T02:13:08;7.07;;;6.20;;
9420;SDS011;4749;51.398;5.466;2023-03-01T02:15:43;9.63;;;6.50;;
9420;SDS011;4749;51.398;5.466;2023-03-01T02:18:12;7.50;;;6.17;;
9420;SDS011;4749;51.398;5.466;2023-03-01T02:23:49;7.37;;;5.53;;
9420;SDS011;4749;51.398;5.466;2023-03-01T02:26:19;8.57;;;5.97;;
9420;SDS011;4749;51.398;5.466;2023-03-01T02:28:52;6.93;;;5.60;;
9420;SDS011;4749;51.398;5.466;2023-03-01T02:31:20;8.37;;;5.97;;
9420;SDS011;4749;51.398;5.466;2023-03-01T02:34:06;7.70;;;5.97;;
9420;SDS011;4749;51.398;5.466;2023-03-01T02:36:39;8.37;;;6.43;;
9420;SDS011;4749;51.398;5.466;2023-03-01T02:39:21;7.00;;;5.63;;
9420;SDS011;4749;51.398;5.466;2023-03-01T02:41:57;7.33;;;5.77;;
9420;SDS011;4749;51.398;5.466;2023-03-01T02:44:29;8.03;;;6.40;;
9420;SDS011;4749;51.398;5.466;2023-03-01T02:46:56;9.43;;;6.30;;
9420;SDS011;4749;51.398;5.466;2023-03-01T02:49:29;8.90;;;6.80;;
9420;SDS011;4749;51.398;5.466;2023-03-01T02:57:31;7.10;;;5.77;;
9420;SDS011;4749;51.398;5.466;2023-03-01T03:00:09;7.87;;;6.17;;
9420;SDS011;4749;51.398;5.466;2023-03-01T03:02:46;7.13;;;5.90;;
9420;SDS011;4749;51.398;5.466;2023-03-01T03:05:23;7.93;;;6.07;;
9420;SDS011;4749;51.398;5.466;2023-03-01T03:07:54;9.00;;;6.03;;
9420;SDS011;4749;51.398;5.466;2023-03-01T03:10:25;8.93;;;6.43;;
9420;SDS011;4749;51.398;5.466;2023-03-01T03:12:57;9.07;;;7.03;;
9420;SDS011;4749;51.398;5.466;2023-03-01T03:15:32;7.27;;;6.00;;
9420;SDS011;4749;51.398;5.466;2023-03-01T03:18:03;7.77;;;6.27;;
9420;SDS011;4749;51.398;5.466;2023-03-01T03:20:34;9.57;;;6.30;;
9420;SDS011;4749;51.398;5.466;2023-03-01T03:23:05;9.40;;;6.70;;
9420;SDS011;4749;51.398;5.466;2023-03-01T03:25:33;7.77;;;6.57;;
9420;SDS011;4749;51.398;5.466;2023-03-01T03:28:04;8.50;;;7.10;;
9420;SDS011;4749;51.398;5.466;2023-03-01T03:30:37;8.77;;;6.63;;
9420;SDS011;4749;51.398;5.466;2023-03-01T03:33:07;8.80;;;6.63;;
9420;SDS011;4749;51.398;5.466;2023-03-01T03:35:48;10.10;;;6.60;;
9420;SDS011;4749;51.398;5.466;2023-03-01T03:38:18;8.67;;;6.47;;
9420;SDS011;4749;51.398;5.466;2023-03-01T03:40:49;8.23;;;6.90;;
9420;SDS011;4749;51.398;5.466;2023-03-01T03:43:35;9.07;;;6.87;;
9420;SDS011;4749;51.398;5.466;2023-03-01T03:46:04;7.93;;;6.07;;
9420;SDS011;4749;51.398;5.466;2023-03-01T03:48:33;10.60;;;7.13;;
9420;SDS011;4749;51.398;5.466;2023-03-01T03:51:06;8.83;;;6.87;;
9420;SDS011;4749;51.398;5.466;2023-03-01T03:53:41;11.33;;;7.40;;
9420;SDS011;4749;51.398;5.466;2023-03-01T03:56:09;8.67;;;7.20;;
9420;SDS011;4749;51.398;5.466;2023-03-01T03:58:37;11.47;;;7.23;;
9420;SDS011;4749;51.398;5.466;2023-03-01T04:01:04;9.10;;;6.90;;
9420;SDS011;4749;51.398;5.466;2023-03-01T04:03:32;10.70;;;7.77;;
9420;SDS011;4749;51.398;5.466;2023-03-01T04:06:03;9.17;;;7.10;;
9420;SDS011;4749;51.398;5.466;2023-03-01T04:08:31;9.33;;;7.00;;
9420;SDS011;4749;51.398;5.466;2023-03-01T04:11:00;9.20;;;6.77;;
9420;SDS011;4749;51.398;5.466;2023-03-01T04:13:50;10.77;;;6.93;;
9420;SDS011;4749;51.398;5.466;2023-03-01T04:16:22;9.40;;;7.50;;
9420;SDS011;4749;51.398;5.466;2023-03-01T04:18:50;8.37;;;6.87;;
9420;SDS011;4749;51.398;5.466;2023-03-01T04:21:20;10.77;;;6.87;;
9420;SDS011;4749;51.398;5.466;2023-03-01T04:23:51;8.40;;;6.70;;
9420;SDS011;4749;51.398;5.466;2023-03-01T04:26:19;7.90;;;6.43;;
9420;SDS011;4749;51.398;5.466;2023-03-01T04:28:47;9.00;;;6.77;;
9420;SDS011;4749;51.398;5.466;2023-03-01T04:31:18;9.47;;;7.23;;
9420;SDS011;4749;51.398;5.466;2023-03-01T04:36:22;9.77;;;7.00;;
9420;SDS011;4749;51.398;5.466;2023-03-01T04:38:53;10.97;;;7.20;;
9420;SDS011;4749;51.398;5.466;2023-03-01T04:41:22;9.67;;;6.73;;
9420;SDS011;4749;51.398;5.466;2023-03-01T04:43:51;8.33;;;6.63;;
9420;SDS011;4749;51.398;5.466;2023-03-01T04:46:19;9.53;;;7.27;;
9420;SDS011;4749;51.398;5.466;2023-03-01T04:48:51;8.33;;;6.63;;
9420;SDS011;4749;51.398;5.466;2023-03-01T04:51:26;10.90;;;7.53;;
9420;SDS011;4749;51.398;5.466;2023-03-01T04:53:54;9.10;;;7.33;;
9420;SDS011;4749;51.398;5.466;2023-03-01T04:56:21;12.23;;;7.57;;
9420;SDS011;4749;51.398;5.466;2023-03-01T04:58:49;9.57;;;6.47;;
9420;SDS011;4749;51.398;5.466;2023-03-01T05:01:22;10.40;;;7.57;;
9420;SDS011;4749;51.398;5.466;2023-03-01T05:03:52;10.57;;;7.40;;
9420;SDS011;4749;51.398;5.466;2023-03-01T05:06:31;11.40;;;7.03;;
9420;SDS011;4749;51.398;5.466;2023-03-01T05:09:01;10.83;;;7.67;;
9420;SDS011;4749;51.398;5.466;2023-03-01T05:11:32;9.83;;;7.40;;
9420;SDS011;4749;51.398;5.466;2023-03-01T05:14:09;9.63;;;7.87;;
9420;SDS011;4749;51.398;5.466;2023-03-01T05:16:40;10.17;;;7.77;;
9420;SDS011;4749;51.398;5.466;2023-03-01T05:19:07;9.90;;;8.00;;
9420;SDS011;4749;51.398;5.466;2023-03-01T05:21:42;9.70;;;7.47;;
9420;SDS011;4749;51.398;5.466;2023-03-01T05:24:28;10.43;;;7.67;;
9420;SDS011;4749;51.398;5.466;2023-03-01T05:26:58;10.93;;;7.63;;
9420;SDS011;4749;51.398;5.466;2023-03-01T05:29:30;13.47;;;8.53;;
9420;SDS011;4749;51.398;5.466;2023-03-01T05:32:01;10.20;;;8.13;;
9420;SDS011;4749;51.398;5.466;2023-03-01T05:34:31;10.07;;;7.93;;
9420;SDS011;4749;51.398;5.466;2023-03-01T05:37:02;11.93;;;8.40;;
9420;SDS011;4749;51.398;5.466;2023-03-01T05:39:29;12.37;;;7.50;;
9420;SDS011;4749;51.398;5.466;2023-03-01T05:42:00;10.77;;;8.33;;
9420;SDS011;4749;51.398;5.466;2023-03-01T05:44:28;12.40;;;8.70;;
9420;SDS011;4749;51.398;5.466;2023-03-01T05:46:57;10.60;;;7.63;;
9420;SDS011;4749;51.398;5.466;2023-03-01T05:49:24;12.00;;;8.60;;
9420;SDS011;4749;51.398;5.466;2023-03-01T05:51:52;10.77;;;8.17;;
9420;SDS011;4749;51.398;5.466;2023-03-01T05:54:20;12.03;;;7.87;;
9420;SDS011;4749;51.398;5.466;2023-03-01T05:56:48;10.17;;;8.00;;
9420;SDS011;4749;51.398;5.466;2023-03-01T05:59:22;10.20;;;8.17;;
9420;SDS011;4749;51.398;5.466;2023-03-01T06:01:50;10.90;;;7.97;;
9420;SDS011;4749;51.398;5.466;2023-03-01T06:04:17;10.30;;;8.07;;
9420;SDS011;4749;51.398;5.466;2023-03-01T06:06:50;10.73;;;7.80;;
9420;SDS011;4749;51.398;5.466;2023-03-01T06:09:42;10.17;;;8.07;;
9420;SDS011;4749;51.398;5.466;2023-03-01T06:13:07;11.00;;;8.30;;
9420;SDS011;4749;51.398;5.466;2023-03-01T06:15:48;11.37;;;8.47;;
9420;SDS011;4749;51.398;5.466;2023-03-01T06:18:28;14.20;;;8.33;;
9420;SDS011;4749;51.398;5.466;2023-03-01T06:21:57;11.17;;;7.93;;
9420;SDS011;4749;51.398;5.466;2023-03-01T06:24:44;12.40;;;8.23;;
9420;SDS011;4749;51.398;5.466;2023-03-01T06:28:15;9.97;;;7.97;;
9420;SDS011;4749;51.398;5.466;2023-03-01T06:30:49;12.43;;;8.87;;
9420;SDS011;4749;51.398;5.466;2023-03-01T06:33:27;10.27;;;8.37;;
9420;SDS011;4749;51.398;5.466;2023-03-01T06:36:24;12.70;;;8.83;;
9420;SDS011;4749;51.398;5.466;2023-03-01T06:39:02;11.23;;;8.77;;
9420;SDS011;4749;51.398;5.466;2023-03-01T06:41:31;11.07;;;8.63;;
9420;SDS011;4749;51.398;5.466;2023-03-01T06:44:00;12.47;;;8.57;;
9420;SDS011;4749;51.398;5.466;2023-03-01T06:46:29;12.10;;;8.90;;
9420;SDS011;4749;51.398;5.466;2023-03-01T06:48:57;11.80;;;8.73;;
9420;SDS011;4749;51.398;5.466;2023-03-01T06:51:25;12.20;;;8.47;;
9420;SDS011;4749;51.398;5.466;2023-03-01T06:53:56;11.87;;;8.77;;
9420;SDS011;4749;51.398;5.466;2023-03-01T06:56:26;13.57;;;9.10;;
9420;SDS011;4749;51.398;5.466;2023-03-01T06:58:54;12.73;;;8.90;;
9420;SDS011;4749;51.398;5.466;2023-03-01T07:01:21;13.07;;;8.60;;
9420;SDS011;4749;51.398;5.466;2023-03-01T07:03:49;13.70;;;9.10;;
9420;SDS011;4749;51.398;5.466;2023-03-01T07:06:16;12.03;;;8.90;;
9420;SDS011;4749;51.398;5.466;2023-03-01T07:08:44;11.67;;;8.23;;
9420;SDS011;4749;51.398;5.466;2023-03-01T07:11:12;13.23;;;8.87;;
9420;SDS011;4749;51.398;5.466;2023-03-01T07:13:39;10.97;;;8.47;;
9420;SDS011;4749;51.398;5.466;2023-03-01T07:16:07;12.90;;;9.00;;
9420;SDS011;4749;51.398;5.466;2023-03-01T07:18:35;13.63;;;8.63;;
9420;SDS011;4749;51.398;5.466;2023-03-01T07:21:09;11.97;;;8.90;;
9420;SDS011;4749;51.398;5.466;2023-03-01T07:23:43;14.03;;;9.17;;
9420;SDS011;4749;51.398;5.466;2023-03-01T07:26:13;11.37;;;9.00;;
9420;SDS011;4749;51.398;5.466;2023-03-01T07:28:44;14.40;;;8.67;;
9420;SDS011;4749;51.398;5.466;2023-03-01T07:31:16;14.60;;;9.07;;
9420;SDS011;4749;51.398;5.466;2023-03-01T07:33:49;10.67;;;8.20;;
9420;SDS011;4749;51.398;5.466;2023-03-01T07:36:33;14.57;;;9.13;;
9420;SDS011;4749;51.398;5.466;2023-03-01T07:39:21;11.30;;;8.23;;
9420;SDS011;4749;51.398;5.466;2023-03-01T07:42:07;11.67;;;8.37;;
9420;SDS011;4749;51.398;5.466;2023-03-01T07:44:49;13.73;;;9.47;;
9420;SDS011;4749;51.398;5.466;2023-03-01T07:47:17;12.23;;;8.30;;
9420;SDS011;4749;51.398;5.466;2023-03-01T07:49:55;11.60;;;8.83;;
9420;SDS011;4749;51.398;5.466;2023-03-01T07:52:25;10.83;;;8.23;;
9420;SDS011;4749;51.398;5.466;2023-03-01T07:54:59;12.03;;;8.43;;
9420;SDS011;4749;51.398;5.466;2023-03-01T07:57:26;11.20;;;8.27;;
9420;SDS011;4749;51.398;5.466;2023-03-01T07:59:54;12.53;;;8.13;;
9420;SDS011;4749;51.398;5.466;2023-03-01T08:02:23;11.57;;;8.50;;
9420;SDS011;4749;51.398;5.466;2023-03-01T08:04:51;12.03;;;8.77;;
9420;SDS011;4749;51.398;5.466;2023-03-01T08:07:18;13.40;;;9.43;;
9420;SDS011;4749;51.398;5.466;2023-03-01T08:09:45;11.00;;;8.33;;
9420;SDS011;4749;51.398;5.466;2023-03-01T08:12:12;12.63;;;8.60;;
9420;SDS011;4749;51.398;5.466;2023-03-01T08:14:39;10.87;;;8.07;;
9420;SDS011;4749;51.398;5.466;2023-03-01T08:17:07;11.40;;;8.03;;
9420;SDS011;4749;51.398;5.466;2023-03-01T08:19:34;11.20;;;7.87;;
9420;SDS011;4749;51.398;5.466;2023-03-01T08:22:02;9.93;;;7.80;;
9420;SDS011;4749;51.398;5.466;2023-03-01T08:24:29;10.03;;;7.87;;
9420;SDS011;4749;51.398;5.466;2023-03-01T08:26:56;10.60;;;7.67;;
9420;SDS011;4749;51.398;5.466;2023-03-01T08:29:24;12.53;;;8.47;;
9420;SDS011;4749;51.398;5.466;2023-03-01T08:31:51;11.10;;;7.63;;
9420;SDS011;4749;51.398;5.466;2023-03-01T08:34:18;10.73;;;7.27;;
9420;SDS011;4749;51.398;5.466;2023-03-01T08:37:03;10.43;;;7.43;;
9420;SDS011;4749;51.398;5.466;2023-03-01T08:39:50;9.10;;;6.80;;
9420;SDS011;4749;51.398;5.466;2023-03-01T08:42:32;11.97;;;6.60;;
9420;SDS011;4749;51.398;5.466;2023-03-01T08:46:15;11.50;;;6.77;;
9420;SDS011;4749;51.398;5.466;2023-03-01T08:53:22;9.47;;;6.57;;
9420;SDS011;4749;51.398;5.466;2023-03-01T08:57:50;8.63;;;6.23;;
9420;SDS011;4749;51.398;5.466;2023-03-01T09:01:47;9.67;;;6.60;;
9420;SDS011;4749;51.398;5.466;2023-03-01T09:06:40;11.40;;;5.97;;
9420;SDS011;4749;51.398;5.466;2023-03-01T09:14:13;9.87;;;6.10;;
9420;SDS011;4749;51.398;5.466;2023-03-01T09:17:54;9.00;;;6.73;;
9420;SDS011;4749;51.398;5.466;2023-03-01T09:20:33;8.67;;;6.30;;
9420;SDS011;4749;51.398;5.466;2023-03-01T09:23:01;8.80;;;5.93;;
9420;SDS011;4749;51.398;5.466;2023-03-01T09:25:28;12.17;;;5.73;;
9420;SDS011;4749;51.398;5.466;2023-03-01T09:27:56;8.10;;;6.30;;
9420;SDS011;4749;51.398;5.466;2023-03-01T09:30:23;8.60;;;6.20;;
9420;SDS011;4749;51.398;5.466;2023-03-01T09:32:50;10.27;;;6.80;;
9420;SDS011;4749;51.398;5.466;2023-03-01T09:35:19;9.43;;;6.40;;
9420;SDS011;4749;51.398;5.466;2023-03-01T09:37:46;10.80;;;6.33;;
9420;SDS011;4749;51.398;5.466;2023-03-01T09:40:17;9.57;;;6.60;;
9420;SDS011;4749;51.398;5.466;2023-03-01T09:42:54;11.20;;;5.93;;
9420;SDS011;4749;51.398;5.466;2023-03-01T09:45:35;9.47;;;6.63;;
9420;SDS011;4749;51.398;5.466;2023-03-01T09:48:13;8.83;;;5.80;;
9420;SDS011;4749;51.398;5.466;2023-03-01T09:50:48;8.83;;;6.30;;
9420;SDS011;4749;51.398;5.466;2023-03-01T09:53:17;8.43;;;6.20;;
9420;SDS011;4749;51.398;5.466;2023-03-01T09:55:55;9.90;;;6.17;;
9420;SDS011;4749;51.398;5.466;2023-03-01T10:07:13;14.67;;;7.57;;
9420;SDS011;4749;51.398;5.466;2023-03-01T10:09:47;8.83;;;6.63;;
9420;SDS011;4749;51.398;5.466;2023-03-01T10:12:19;12.37;;;7.77;;
9420;SDS011;4749;51.398;5.466;2023-03-01T10:17:52;13.87;;;7.70;;
9420;SDS011;4749;51.398;5.466;2023-03-01T10:23:31;12.83;;;7.87;;
9420;SDS011;4749;51.398;5.466;2023-03-01T10:26:05;11.20;;;7.33;;
9420;SDS011;4749;51.398;5.466;2023-03-01T10:29:10;10.50;;;7.10;;
9420;SDS011;4749;51.398;5.466;2023-03-01T10:31:44;8.63;;;7.10;;
9420;SDS011;4749;51.398;5.466;2023-03-01T10:34:18;9.13;;;6.57;;
9420;SDS011;4749;51.398;5.466;2023-03-01T10:37:01;10.60;;;7.10;;
9420;SDS011;4749;51.398;5.466;2023-03-01T10:43:10;10.50;;;6.67;;
9420;SDS011;4749;51.398;5.466;2023-03-01T10:45:33;11.07;;;6.67;;
9420;SDS011;4749;51.398;5.466;2023-03-01T10:53:33;9.00;;;5.93;;
9420;SDS011;4749;51.398;5.466;2023-03-01T10:56:17;7.93;;;5.70;;
9420;SDS011;4749;51.398;5.466;2023-03-01T10:59:01;9.70;;;6.70;;
9420;SDS011;4749;51.398;5.466;2023-03-01T11:01:45;8.70;;;6.37;;
9420;SDS011;4749;51.398;5.466;2023-03-01T11:04:32;11.10;;;7.27;;
9420;SDS011;4749;51.398;5.466;2023-03-01T11:06:59;8.43;;;6.33;;
9420;SDS011;4749;51.398;5.466;2023-03-01T11:09:33;12.83;;;6.37;;
9420;SDS011;4749;51.398;5.466;2023-03-01T11:12:13;10.83;;;6.67;;
9420;SDS011;4749;51.398;5.466;2023-03-01T11:14:53;9.13;;;6.97;;
9420;SDS011;4749;51.398;5.466;2023-03-01T11:17:28;12.27;;;7.37;;
9420;SDS011;4749;51.398;5.466;2023-03-01T11:22:45;9.83;;;6.30;;
9420;SDS011;4749;51.398;5.466;2023-03-01T11:25:19;9.97;;;6.83;;
9420;SDS011;4749;51.398;5.466;2023-03-01T11:28:02;9.57;;;7.07;;
9420;SDS011;4749;51.398;5.466;2023-03-01T11:30:39;10.20;;;6.77;;
9420;SDS011;4749;51.398;5.466;2023-03-01T11:42:05;8.87;;;6.27;;
9420;SDS011;4749;51.398;5.466;2023-03-01T11:44:46;11.13;;;7.00;;
9420;SDS011;4749;51.398;5.466;2023-03-01T11:47:30;10.30;;;6.30;;
9420;SDS011;4749;51.398;5.466;2023-03-01T11:50:33;10.20;;;6.67;;
9420;SDS011;4749;51.398;5.466;2023-03-01T11:53:30;11.23;;;6.43;;
9420;SDS011;4749;51.398;5.466;2023-03-01T12:09:31;7.53;;;5.73;;
9420;SDS011;4749;51.398;5.466;2023-03-01T12:11:57;7.47;;;5.63;;
9420;SDS011;4749;51.398;5.466;2023-03-01T12:18:42;7.07;;;5.17;;
9420;SDS011;4749;51.398;5.466;2023-03-01T12:25:19;8.17;;;4.93;;
9420;SDS011;4749;51.398;5.466;2023-03-01T12:28:18;8.40;;;5.20;;
9420;SDS011;4749;51.398;5.466;2023-03-01T12:40:23;9.70;;;5.37;;
9420;SDS011;4749;51.398;5.466;2023-03-01T12:46:26;7.57;;;5.03;;
9420;SDS011;4749;51.398;5.466;2023-03-01T12:49:38;8.07;;;5.90;;
9420;SDS011;4749;51.398;5.466;2023-03-01T12:52:15;8.00;;;5.43;;
9420;SDS011;4749;51.398;5.466;2023-03-01T12:55:02;6.80;;;5.07;;
9420;SDS011;4749;51.398;5.466;2023-03-01T12:58:02;7.40;;;5.40;;
9420;SDS011;4749;51.398;5.466;2023-03-01T13:04:06;7.63;;;4.90;;
9420;SDS011;4749;51.398;5.466;2023-03-01T13:07:25;9.13;;;5.30;;
9420;SDS011;4749;51.398;5.466;2023-03-01T13:10:03;7.17;;;5.23;;
9420;SDS011;4749;51.398;5.466;2023-03-01T13:21:05;8.43;;;5.20;;
9420;SDS011;4749;51.398;5.466;2023-03-01T13:26:03;7.87;;;5.13;;
9420;SDS011;4749;51.398;5.466;2023-03-01T13:33:54;7.27;;;5.27;;
9420;SDS011;4749;51.398;5.466;2023-03-01T13:38:56;7.53;;;5.00;;
9420;SDS011;4749;51.398;5.466;2023-03-01T13:46:52;8.23;;;5.63;;
9420;SDS011;4749;51.398;5.466;2023-03-01T13:49:30;7.47;;;5.00;;
9420;SDS011;4749;51.398;5.466;2023-03-01T13:55:05;8.87;;;5.50;;
9420;SDS011;4749;51.398;5.466;2023-03-01T13:57:51;7.13;;;4.90;;
9420;SDS011;4749;51.398;5.466;2023-03-01T14:00:34;7.10;;;4.93;;
9420;SDS011;4749;51.398;5.466;2023-03-01T14:03:11;8.03;;;4.53;;
9420;SDS011;4749;51.398;5.466;2023-03-01T14:08:46;6.30;;;4.63;;
9420;SDS011;4749;51.398;5.466;2023-03-01T14:11:21;6.20;;;4.87;;
9420;SDS011;4749;51.398;5.466;2023-03-01T14:19:48;7.67;;;4.57;;
9420;SDS011;4749;51.398;5.466;2023-03-01T14:22:28;5.80;;;4.67;;
9420;SDS011;4749;51.398;5.466;2023-03-01T14:25:00;6.40;;;4.87;;
9420;SDS011;4749;51.398;5.466;2023-03-01T14:27:45;6.83;;;4.67;;
9420;SDS011;4749;51.398;5.466;2023-03-01T14:30:34;6.77;;;4.40;;
9420;SDS011;4749;51.398;5.466;2023-03-01T14:33:27;6.23;;;4.80;;
9420;SDS011;4749;51.398;5.466;2023-03-01T14:36:04;6.83;;;4.77;;
9420;SDS011;4749;51.398;5.466;2023-03-01T14:38:38;6.00;;;4.57;;
9420;SDS011;4749;51.398;5.466;2023-03-01T14:41:26;7.03;;;4.97;;
9420;SDS011;4749;51.398;5.466;2023-03-01T14:43:55;9.37;;;5.63;;
9420;SDS011;4749;51.398;5.466;2023-03-01T14:46:51;6.97;;;4.67;;
9420;SDS011;4749;51.398;5.466;2023-03-01T14:49:31;7.77;;;4.87;;
9420;SDS011;4749;51.398;5.466;2023-03-01T14:52:21;6.77;;;5.23;;
9420;SDS011;4749;51.398;5.466;2023-03-01T14:54:52;6.10;;;4.63;;
9420;SDS011;4749;51.398;5.466;2023-03-01T14:57:22;8.43;;;5.40;;
9420;SDS011;4749;51.398;5.466;2023-03-01T14:59:59;7.70;;;4.90;;
9420;SDS011;4749;51.398;5.466;2023-03-01T15:02:32;9.63;;;5.30;;
9420;SDS011;4749;51.398;5.466;2023-03-01T15:05:01;7.97;;;5.10;;
9420;SDS011;4749;51.398;5.466;2023-03-01T15:07:35;8.40;;;4.90;;
9420;SDS011;4749;51.398;5.466;2023-03-01T15:10:17;8.07;;;5.10;;
9420;SDS011;4749;51.398;5.466;2023-03-01T15:12:49;6.83;;;4.93;;
9420;SDS011;4749;51.398;5.466;2023-03-01T15:15:19;8.53;;;5.53;;
9420;SDS011;4749;51.398;5.466;2023-03-01T15:20:49;6.70;;;4.83;;
9420;SDS011;4749;51.398;5.466;2023-03-01T15:23:27;7.40;;;5.57;;
9420;SDS011;4749;51.398;5.466;2023-03-01T15:25:57;7.07;;;5.20;;
9420;SDS011;4749;51.398;5.466;2023-03-01T15:28:29;6.97;;;5.17;;
9420;SDS011;4749;51.398;5.466;2023-03-01T15:31:21;6.63;;;5.20;;
9420;SDS011;4749;51.398;5.466;2023-03-01T15:33:52;9.77;;;5.83;;
9420;SDS011;4749;51.398;5.466;2023-03-01T15:36:44;7.33;;;5.00;;
9420;SDS011;4749;51.398;5.466;2023-03-01T15:47:47;9.00;;;5.70;;
9420;SDS011;4749;51.398;5.466;2023-03-01T15:50:30;11.33;;;5.47;;
9420;SDS011;4749;51.398;5.466;2023-03-01T15:53:04;8.47;;;5.50;;
9420;SDS011;4749;51.398;5.466;2023-03-01T15:55:38;8.33;;;5.37;;
9420;SDS011;4749;51.398;5.466;2023-03-01T15:58:10;10.43;;;6.50;;
9420;SDS011;4749;51.398;5.466;2023-03-01T16:00:42;9.30;;;6.07;;
9420;SDS011;4749;51.398;5.466;2023-03-01T16:03:26;8.20;;;5.57;;
9420;SDS011;4749;51.398;5.466;2023-03-01T16:05:54;10.90;;;6.17;;
9420;SDS011;4749;51.398;5.466;2023-03-01T16:08:22;17.00;;;6.33;;
9420;SDS011;4749;51.398;5.466;2023-03-01T16:10:49;10.60;;;6.03;;
9420;SDS011;4749;51.398;5.466;2023-03-01T16:13:17;8.57;;;5.70;;
9420;SDS011;4749;51.398;5.466;2023-03-01T16:15:45;9.07;;;5.87;;
9420;SDS011;4749;51.398;5.466;2023-03-01T16:18:13;9.67;;;5.83;;
9420;SDS011;4749;51.398;5.466;2023-03-01T16:20:41;10.30;;;6.00;;
9420;SDS011;4749;51.398;5.466;2023-03-01T16:23:09;10.00;;;6.07;;
9420;SDS011;4749;51.398;5.466;2023-03-01T16:25:38;9.20;;;5.83;;
9420;SDS011;4749;51.398;5.466;2023-03-01T16:28:05;8.70;;;5.03;;
9420;SDS011;4749;51.398;5.466;2023-03-01T16:30:37;9.93;;;5.83;;
9420;SDS011;4749;51.398;5.466;2023-03-01T16:33:06;10.00;;;6.30;;
9420;SDS011;4749;51.398;5.466;2023-03-01T16:35:55;8.77;;;6.00;;
9420;SDS011;4749;51.398;5.466;2023-03-01T16:38:24;9.40;;;6.13;;
9420;SDS011;4749;51.398;5.466;2023-03-01T16:40:53;8.37;;;6.00;;
9420;SDS011;4749;51.398;5.466;2023-03-01T16:43:20;9.43;;;6.23;;
9420;SDS011;4749;51.398;5.466;2023-03-01T16:45:47;8.60;;;6.83;;
9420;SDS011;4749;51.398;5.466;2023-03-01T16:48:14;10.50;;;6.33;;
9420;SDS011;4749;51.398;5.466;2023-03-01T16:50:42;11.27;;;6.03;;
9420;SDS011;4749;51.398;5.466;2023-03-01T16:53:09;8.57;;;6.03;;
9420;SDS011;4749;51.398;5.466;2023-03-01T16:55:36;11.20;;;6.60;;
9420;SDS011;4749;51.398;5.466;2023-03-01T16:58:04;9.13;;;6.10;;
9420;SDS011;4749;51.398;5.466;2023-03-01T17:00:32;10.53;;;6.60;;
9420;SDS011;4749;51.398;5.466;2023-03-01T17:02:59;8.60;;;6.50;;
9420;SDS011;4749;51.398;5.466;2023-03-01T17:05:27;9.67;;;6.10;;
9420;SDS011;4749;51.398;5.466;2023-03-01T17:07:54;8.73;;;6.10;;
9420;SDS011;4749;51.398;5.466;2023-03-01T17:10:23;10.63;;;6.67;;
9420;SDS011;4749;51.398;5.466;2023-03-01T17:12:51;9.97;;;6.47;;
9420;SDS011;4749;51.398;5.466;2023-03-01T17:15:18;9.73;;;6.30;;
9420;SDS011;4749;51.398;5.466;2023-03-01T17:17:45;9.43;;;6.40;;
9420;SDS011;4749;51.398;5.466;2023-03-01T17:20:17;9.13;;;6.67;;
9420;SDS011;4749;51.398;5.466;2023-03-01T17:22:45;8.97;;;5.87;;
9420;SDS011;4749;51.398;5.466;2023-03-01T17:25:12;11.67;;;6.43;;
9420;SDS011;4749;51.398;5.466;2023-03-01T17:27:40;10.77;;;7.00;;
9420;SDS011;4749;51.398;5.466;2023-03-01T17:30:09;11.87;;;6.97;;
9420;SDS011;4749;51.398;5.466;2023-03-01T17:32:39;10.00;;;6.57;;
9420;SDS011;4749;51.398;5.466;2023-03-01T17:35:07;11.20;;;6.67;;
9420;SDS011;4749;51.398;5.466;2023-03-01T17:37:38;10.47;;;6.67;;
9420;SDS011;4749;51.398;5.466;2023-03-01T17:40:06;12.97;;;6.70;;
9420;SDS011;4749;51.398;5.466;2023-03-01T17:42:34;10.97;;;6.47;;
9420;SDS011;4749;51.398;5.466;2023-03-01T17:45:01;10.57;;;6.80;;
9420;SDS011;4749;51.398;5.466;2023-03-01T17:47:28;10.67;;;6.80;;
9420;SDS011;4749;51.398;5.466;2023-03-01T17:49:55;11.03;;;6.30;;
9420;SDS011;4749;51.398;5.466;2023-03-01T17:52:23;10.30;;;6.70;;
9420;SDS011;4749;51.398;5.466;2023-03-01T17:54:50;11.97;;;6.90;;
9420;SDS011;4749;51.398;5.466;2023-03-01T17:57:17;9.87;;;6.47;;
9420;SDS011;4749;51.398;5.466;2023-03-01T17:59:44;11.47;;;6.90;;
9420;SDS011;4749;51.398;5.466;2023-03-01T18:02:11;10.97;;;6.30;;
9420;SDS011;4749;51.398;5.466;2023-03-01T18:04:39;11.23;;;6.60;;
9420;SDS011;4749;51.398;5.466;2023-03-01T18:07:07;10.90;;;6.80;;
9420;SDS011;4749;51.398;5.466;2023-03-01T18:09:34;10.17;;;7.00;;
9420;SDS011;4749;51.398;5.466;2023-03-01T18:12:01;10.93;;;7.00;;
9420;SDS011;4749;51.398;5.466;2023-03-01T18:14:29;12.97;;;6.77;;
9420;SDS011;4749;51.398;5.466;2023-03-01T18:16:59;13.30;;;7.20;;
9420;SDS011;4749;51.398;5.466;2023-03-01T18:19:37;10.50;;;6.93;;
9420;SDS011;4749;51.398;5.466;2023-03-01T18:22:09;14.13;;;7.47;;
9420;SDS011;4749;51.398;5.466;2023-03-01T18:24:37;10.10;;;6.33;;
9420;SDS011;4749;51.398;5.466;2023-03-01T18:27:05;11.07;;;6.63;;